sensor_id;sensor_type;location;lat;lon;timestamp;temperature;humidity
73955;DHT22;62306;52.516;13.290;2023-04-24T00:02:08;13.20;99.90
73955;DHT22;62306;52.516;13.290;2023-04-24T00:04:37;13.20;99.90
73955;DHT22;62306;52.516;13.290;2023-04-24T00:07:06;13.10;99.90
73955;DHT22;62306;52.516;13.290;2023-04-24T00:09:33;13.00;99.90
73955;DHT22;62306;52.516;13.290;2023-04-24T00:12:00;13.10;99.90
73955;DHT22;62306;52.516;13.290;2023-04-24T00:14:28;13.10;99.90
73955;DHT22;62306;52.516;13.290;2023-04-24T00:16:55;13.00;99.90
73955;DHT22;62306;52.516;13.290;2023-04-24T00:19:22;12.90;99.90
73955;DHT22;62306;52.516;13.290;2023-04-24T00:21:50;12.90;99.90
73955;DHT22;62306;52.516;13.290;2023-04-24T00:24:17;12.90;99.90
73955;DHT22;62306;52.516;13.290;2023-04-24T00:26:45;12.90;99.90
73955;DHT22;62306;52.516;13.290;2023-04-24T00:29:12;13.00;99.90
73955;DHT22;62306;52.516;13.290;2023-04-24T00:31:39;12.90;99.90
73955;DHT22;62306;52.516;13.290;2023-04-24T00:34:06;12.80;99.90
73955;DHT22;62306;52.516;13.290;2023-04-24T00:36:34;12.80;99.90
73955;DHT22;62306;52.516;13.290;2023-04-24T00:39:02;12.70;99.90
73955;DHT22;62306;52.516;13.290;2023-04-24T00:41:30;12.70;99.90
73955;DHT22;62306;52.516;13.290;2023-04-24T00:43:57;12.60;99.90
73955;DHT22;62306;52.516;13.290;2023-04-24T00:46:24;12.60;99.90
73955;DHT22;62306;52.516;13.290;2023-04-24T00:48:52;12.70;99.90
73955;DHT22;62306;52.516;13.290;2023-04-24T00:51:19;12.60;99.90
73955;DHT22;62306;52.516;13.290;2023-04-24T00:53:46;12.60;99.90
73955;DHT22;62306;52.516;13.290;2023-04-24T00:56:15;12.70;99.90
73955;DHT22;62306;52.516;13.290;2023-04-24T00:58:42;12.80;99.90
73955;DHT22;62306;52.516;13.290;2023-04-24T01:01:10;12.70;99.90
73955;DHT22;62306;52.516;13.290;2023-04-24T01:03:37;12.80;99.90
73955;DHT22;62306;52.516;13.290;2023-04-24T01:06:05;12.80;99.90
73955;DHT22;62306;52.516;13.290;2023-04-24T01:08:33;12.70;99.90
73955;DHT22;62306;52.516;13.290;2023-04-24T01:11:03;12.70;99.90
73955;DHT22;62306;52.516;13.290;2023-04-24T01:13:33;12.70;99.90
73955;DHT22;62306;52.516;13.290;2023-04-24T01:16:01;12.70;99.90
73955;DHT22;62306;52.516;13.290;2023-04-24T01:20:58;12.80;99.90
73955;DHT22;62306;52.516;13.290;2023-04-24T01:23:26;12.90;99.90
73955;DHT22;62306;52.516;13.290;2023-04-24T01:25:53;12.90;99.90
73955;DHT22;62306;52.516;13.290;2023-04-24T01:28:21;13.00;99.90
73955;DHT22;62306;52.516;13.290;2023-04-24T01:30:48;13.10;99.90
73955;DHT22;62306;52.516;13.290;2023-04-24T01:33:15;13.10;99.90
73955;DHT22;62306;52.516;13.290;2023-04-24T01:35:43;13.20;99.90
73955;DHT22;62306;52.516;13.290;2023-04-24T01:38:10;13.30;99.90
73955;DHT22;62306;52.516;13.290;2023-04-24T01:40:38;13.20;99.90
73955;DHT22;62306;52.516;13.290;2023-04-24T01:43:05;13.20;99.90
73955;DHT22;62306;52.516;13.290;2023-04-24T01:45:33;13.10;99.90
73955;DHT22;62306;52.516;13.290;2023-04-24T01:48:00;13.10;99.90
73955;DHT22;62306;52.516;13.290;2023-04-24T01:50:27;12.80;99.90
73955;DHT22;62306;52.516;13.290;2023-04-24T01:52:54;13.10;99.90
73955;DHT22;62306;52.516;13.290;2023-04-24T01:55:21;13.00;99.90
73955;DHT22;62306;52.516;13.290;2023-04-24T01:57:50;12.90;99.90
73955;DHT22;62306;52.516;13.290;2023-04-24T02:00:18;12.90;99.90
73955;DHT22;62306;52.516;13.290;2023-04-24T02:02:45;12.80;99.90
73955;DHT22;62306;52.516;13.290;2023-04-24T02:05:12;12.80;99.90
73955;DHT22;62306;52.516;13.290;2023-04-24T02:07:39;12.80;99.90
73955;DHT22;62306;52.516;13.290;2023-04-24T02:10:07;12.80;99.90
73955;DHT22;62306;52.516;13.290;2023-04-24T02:12:33;12.80;99.90
73955;DHT22;62306;52.516;13.290;2023-04-24T02:15:02;12.80;99.90
73955;DHT22;62306;52.516;13.290;2023-04-24T02:17:29;12.70;99.90
73955;DHT22;62306;52.516;13.290;2023-04-24T02:19:56;12.70;99.90
73955;DHT22;62306;52.516;13.290;2023-04-24T02:22:23;12.70;99.90
73955;DHT22;62306;52.516;13.290;2023-04-24T02:24:50;12.70;99.90
73955;DHT22;62306;52.516;13.290;2023-04-24T02:27:16;12.70;99.90
73955;DHT22;62306;52.516;13.290;2023-04-24T02:29:43;12.70;99.90
73955;DHT22;62306;52.516;13.290;2023-04-24T02:32:12;12.60;99.90
73955;DHT22;62306;52.516;13.290;2023-04-24T02:34:41;12.70;99.90
73955;DHT22;62306;52.516;13.290;2023-04-24T02:37:09;12.70;99.90
73955;DHT22;62306;52.516;13.290;2023-04-24T02:39:38;12.70;99.90
73955;DHT22;62306;52.516;13.290;2023-04-24T02:42:06;12.70;99.90
73955;DHT22;62306;52.516;13.290;2023-04-24T02:44:33;12.70;99.90
73955;DHT22;62306;52.516;13.290;2023-04-24T02:47:00;12.70;99.90
73955;DHT22;62306;52.516;13.290;2023-04-24T02:49:28;12.80;99.90
73955;DHT22;62306;52.516;13.290;2023-04-24T02:51:55;12.80;99.90
73955;DHT22;62306;52.516;13.290;2023-04-24T02:54:22;12.80;99.90
73955;DHT22;62306;52.516;13.290;2023-04-24T02:56:49;12.80;99.90
73955;DHT22;62306;52.516;13.290;2023-04-24T02:59:16;12.80;99.90
73955;DHT22;62306;52.516;13.290;2023-04-24T03:01:43;12.80;99.90
73955;DHT22;62306;52.516;13.290;2023-04-24T03:04:09;12.80;99.90
73955;DHT22;62306;52.516;13.290;2023-04-24T03:06:38;12.80;99.90
73955;DHT22;62306;52.516;13.290;2023-04-24T03:09:05;12.70;99.90
73955;DHT22;62306;52.516;13.290;2023-04-24T03:11:32;12.80;99.90
73955;DHT22;62306;52.516;13.290;2023-04-24T03:13:58;12.70;99.90
73955;DHT22;62306;52.516;13.290;2023-04-24T03:16:25;12.80;99.90
73955;DHT22;62306;52.516;13.290;2023-04-24T03:18:52;12.70;99.90
73955;DHT22;62306;52.516;13.290;2023-04-24T03:21:19;12.80;99.90
73955;DHT22;62306;52.516;13.290;2023-04-24T03:23:47;12.90;99.90
73955;DHT22;62306;52.516;13.290;2023-04-24T03:26:15;12.90;99.90
73955;DHT22;62306;52.516;13.290;2023-04-24T03:28:41;12.90;99.90
73955;DHT22;62306;52.516;13.290;2023-04-24T03:31:08;12.90;99.90
73955;DHT22;62306;52.516;13.290;2023-04-24T03:33:35;12.90;99.90
73955;DHT22;62306;52.516;13.290;2023-04-24T03:36:02;13.00;99.90
73955;DHT22;62306;52.516;13.290;2023-04-24T03:38:30;13.00;99.90
73955;DHT22;62306;52.516;13.290;2023-04-24T03:40:58;12.90;99.90
73955;DHT22;62306;52.516;13.290;2023-04-24T03:43:25;12.90;99.90
73955;DHT22;62306;52.516;13.290;2023-04-24T03:45:52;12.90;99.90
73955;DHT22;62306;52.516;13.290;2023-04-24T03:48:19;12.80;99.90
73955;DHT22;62306;52.516;13.290;2023-04-24T03:50:46;12.90;99.90
73955;DHT22;62306;52.516;13.290;2023-04-24T03:53:13;12.90;99.90
73955;DHT22;62306;52.516;13.290;2023-04-24T03:55:40;12.90;99.90
73955;DHT22;62306;52.516;13.290;2023-04-24T03:58:09;12.90;99.90
73955;DHT22;62306;52.516;13.290;2023-04-24T04:00:36;12.90;99.90
73955;DHT22;62306;52.516;13.290;2023-04-24T04:03:05;12.90;99.90
73955;DHT22;62306;52.516;13.290;2023-04-24T04:05:32;12.90;99.90
73955;DHT22;62306;52.516;13.290;2023-04-24T04:07:59;12.90;99.90
73955;DHT22;62306;52.516;13.290;2023-04-24T04:10:26;12.90;99.90
73955;DHT22;62306;52.516;13.290;2023-04-24T04:12:53;12.90;99.90
73955;DHT22;62306;52.516;13.290;2023-04-24T04:15:21;12.90;99.90
73955;DHT22;62306;52.516;13.290;2023-04-24T04:17:48;12.90;99.90
73955;DHT22;62306;52.516;13.290;2023-04-24T04:20:15;12.90;99.90
73955;DHT22;62306;52.516;13.290;2023-04-24T04:22:41;12.90;99.90
73955;DHT22;62306;52.516;13.290;2023-04-24T04:25:09;12.90;99.90
73955;DHT22;62306;52.516;13.290;2023-04-24T04:27:37;12.90;99.90
73955;DHT22;62306;52.516;13.290;2023-04-24T04:30:05;12.90;99.90
73955;DHT22;62306;52.516;13.290;2023-04-24T04:32:34;12.90;99.90
73955;DHT22;62306;52.516;13.290;2023-04-24T04:35:01;12.80;99.90
73955;DHT22;62306;52.516;13.290;2023-04-24T04:37:29;12.90;99.90
73955;DHT22;62306;52.516;13.290;2023-04-24T04:39:56;12.90;99.90
73955;DHT22;62306;52.516;13.290;2023-04-24T04:42:24;12.90;99.90
73955;DHT22;62306;52.516;13.290;2023-04-24T04:44:51;12.90;99.90
73955;DHT22;62306;52.516;13.290;2023-04-24T04:47:18;12.90;99.90
73955;DHT22;62306;52.516;13.290;2023-04-24T04:49:48;12.90;99.90
73955;DHT22;62306;52.516;13.290;2023-04-24T04:52:17;12.90;99.90
73955;DHT22;62306;52.516;13.290;2023-04-24T04:54:44;13.00;99.90
73955;DHT22;62306;52.516;13.290;2023-04-24T04:57:11;13.00;99.90
73955;DHT22;62306;52.516;13.290;2023-04-24T04:59:38;13.10;99.90
73955;DHT22;62306;52.516;13.290;2023-04-24T05:02:06;13.20;99.90
73955;DHT22;62306;52.516;13.290;2023-04-24T05:04:33;13.30;99.90
73955;DHT22;62306;52.516;13.290;2023-04-24T05:07:01;13.30;99.90
73955;DHT22;62306;52.516;13.290;2023-04-24T05:09:28;13.40;99.90
73955;DHT22;62306;52.516;13.290;2023-04-24T05:11:55;13.50;99.90
73955;DHT22;62306;52.516;13.290;2023-04-24T05:14:22;13.70;99.90
73955;DHT22;62306;52.516;13.290;2023-04-24T05:16:49;13.80;99.90
73955;DHT22;62306;52.516;13.290;2023-04-24T05:19:16;13.90;99.90
73955;DHT22;62306;52.516;13.290;2023-04-24T05:21:43;14.00;99.90
73955;DHT22;62306;52.516;13.290;2023-04-24T05:24:12;14.00;99.90
73955;DHT22;62306;52.516;13.290;2023-04-24T05:26:38;14.30;99.90
73955;DHT22;62306;52.516;13.290;2023-04-24T05:29:05;15.00;99.90
73955;DHT22;62306;52.516;13.290;2023-04-24T05:31:32;15.70;98.90
73955;DHT22;62306;52.516;13.290;2023-04-24T05:33:59;16.20;97.30
73955;DHT22;62306;52.516;13.290;2023-04-24T05:36:26;16.30;96.80
73955;DHT22;62306;52.516;13.290;2023-04-24T05:38:53;16.60;96.90
73955;DHT22;62306;52.516;13.290;2023-04-24T05:41:22;17.20;94.90
73955;DHT22;62306;52.516;13.290;2023-04-24T05:43:49;17.80;93.80
73955;DHT22;62306;52.516;13.290;2023-04-24T05:46:16;18.10;92.60
73955;DHT22;62306;52.516;13.290;2023-04-24T05:48:43;18.40;91.70
73955;DHT22;62306;52.516;13.290;2023-04-24T05:51:10;18.50;91.00
73955;DHT22;62306;52.516;13.290;2023-04-24T05:53:37;18.60;90.60
73955;DHT22;62306;52.516;13.290;2023-04-24T05:56:04;18.40;90.40
73955;DHT22;62306;52.516;13.290;2023-04-24T05:58:32;18.40;90.20
73955;DHT22;62306;52.516;13.290;2023-04-24T06:00:59;18.70;90.00
73955;DHT22;62306;52.516;13.290;2023-04-24T06:03:27;18.80;88.70
73955;DHT22;62306;52.516;13.290;2023-04-24T06:05:54;18.90;87.50
73955;DHT22;62306;52.516;13.290;2023-04-24T06:08:21;18.50;88.40
73955;DHT22;62306;52.516;13.290;2023-04-24T06:10:48;18.20;90.10
73955;DHT22;62306;52.516;13.290;2023-04-24T06:13:15;18.00;90.80
73955;DHT22;62306;52.516;13.290;2023-04-24T06:15:44;17.90;90.60
73955;DHT22;62306;52.516;13.290;2023-04-24T06:18:11;17.80;90.90
73955;DHT22;62306;52.516;13.290;2023-04-24T06:20:38;17.80;91.00
73955;DHT22;62306;52.516;13.290;2023-04-24T06:23:05;17.90;90.70
73955;DHT22;62306;52.516;13.290;2023-04-24T06:25:32;18.00;90.60
73955;DHT22;62306;52.516;13.290;2023-04-24T06:27:59;18.20;90.10
73955;DHT22;62306;52.516;13.290;2023-04-24T06:30:27;18.60;89.70
73955;DHT22;62306;52.516;13.290;2023-04-24T06:32:55;18.90;86.60
73955;DHT22;62306;52.516;13.290;2023-04-24T06:35:22;19.10;85.70
73955;DHT22;62306;52.516;13.290;2023-04-24T06:37:49;19.00;83.30
73955;DHT22;62306;52.516;13.290;2023-04-24T06:40:15;18.80;84.40
73955;DHT22;62306;52.516;13.290;2023-04-24T06:42:44;18.80;83.60
73955;DHT22;62306;52.516;13.290;2023-04-24T06:45:11;19.10;82.70
73955;DHT22;62306;52.516;13.290;2023-04-24T06:47:37;19.50;81.80
73955;DHT22;62306;52.516;13.290;2023-04-24T06:50:07;19.90;78.90
73955;DHT22;62306;52.516;13.290;2023-04-24T06:52:34;19.90;78.10
73955;DHT22;62306;52.516;13.290;2023-04-24T06:55:01;19.90;77.20
73955;DHT22;62306;52.516;13.290;2023-04-24T06:57:29;20.10;75.90
73955;DHT22;62306;52.516;13.290;2023-04-24T06:59:56;20.30;75.50
73955;DHT22;62306;52.516;13.290;2023-04-24T07:02:23;20.20;74.00
73955;DHT22;62306;52.516;13.290;2023-04-24T07:04:50;19.70;74.50
73955;DHT22;62306;52.516;13.290;2023-04-24T07:07:19;19.40;77.10
73955;DHT22;62306;52.516;13.290;2023-04-24T07:09:46;19.60;75.30
73955;DHT22;62306;52.516;13.290;2023-04-24T07:12:14;19.60;73.40
73955;DHT22;62306;52.516;13.290;2023-04-24T07:14:42;19.40;73.10
73955;DHT22;62306;52.516;13.290;2023-04-24T07:17:09;19.60;71.20
73955;DHT22;62306;52.516;13.290;2023-04-24T07:19:37;19.50;71.40
73955;DHT22;62306;52.516;13.290;2023-04-24T07:22:04;19.50;70.90
73955;DHT22;62306;52.516;13.290;2023-04-24T07:24:32;19.40;71.40
73955;DHT22;62306;52.516;13.290;2023-04-24T07:26:59;19.30;71.70
73955;DHT22;62306;52.516;13.290;2023-04-24T07:29:26;19.50;71.60
73955;DHT22;62306;52.516;13.290;2023-04-24T07:31:53;19.90;69.80
73955;DHT22;62306;52.516;13.290;2023-04-24T07:34:21;20.40;68.10
73955;DHT22;62306;52.516;13.290;2023-04-24T07:36:49;20.70;66.70
73955;DHT22;62306;52.516;13.290;2023-04-24T07:39:16;20.90;66.00
73955;DHT22;62306;52.516;13.290;2023-04-24T07:41:44;21.20;64.80
73955;DHT22;62306;52.516;13.290;2023-04-24T07:44:12;21.30;64.00
73955;DHT22;62306;52.516;13.290;2023-04-24T07:46:39;21.30;62.60
73955;DHT22;62306;52.516;13.290;2023-04-24T07:49:07;21.20;61.00
73955;DHT22;62306;52.516;13.290;2023-04-24T07:51:34;21.10;61.70
73955;DHT22;62306;52.516;13.290;2023-04-24T07:54:03;20.90;62.70
73955;DHT22;62306;52.516;13.290;2023-04-24T07:56:31;21.10;61.90
73955;DHT22;62306;52.516;13.290;2023-04-24T07:59:00;21.30;60.40
73955;DHT22;62306;52.516;13.290;2023-04-24T08:01:27;21.20;58.70
73955;DHT22;62306;52.516;13.290;2023-04-24T08:03:57;21.00;59.40
73955;DHT22;62306;52.516;13.290;2023-04-24T08:06:28;21.10;59.10
73955;DHT22;62306;52.516;13.290;2023-04-24T08:08:57;21.30;58.40
73955;DHT22;62306;52.516;13.290;2023-04-24T08:11:25;21.50;58.20
73955;DHT22;62306;52.516;13.290;2023-04-24T08:13:53;21.60;56.90
73955;DHT22;62306;52.516;13.290;2023-04-24T08:16:23;21.70;56.60
73955;DHT22;62306;52.516;13.290;2023-04-24T08:18:53;21.80;55.70
73955;DHT22;62306;52.516;13.290;2023-04-24T08:21:27;21.70;56.30
73955;DHT22;62306;52.516;13.290;2023-04-24T08:23:56;21.70;56.00
73955;DHT22;62306;52.516;13.290;2023-04-24T08:26:34;21.90;54.90
73955;DHT22;62306;52.516;13.290;2023-04-24T08:29:05;21.80;53.80
73955;DHT22;62306;52.516;13.290;2023-04-24T08:31:35;21.50;54.50
73955;DHT22;62306;52.516;13.290;2023-04-24T08:34:02;20.90;55.90
73955;DHT22;62306;52.516;13.290;2023-04-24T08:36:37;20.80;57.10
73955;DHT22;62306;52.516;13.290;2023-04-24T08:39:08;20.90;57.20
73955;DHT22;62306;52.516;13.290;2023-04-24T08:41:38;21.30;56.60
73955;DHT22;62306;52.516;13.290;2023-04-24T08:44:09;21.60;54.70
73955;DHT22;62306;52.516;13.290;2023-04-24T08:46:40;21.80;53.80
73955;DHT22;62306;52.516;13.290;2023-04-24T08:49:24;21.90;53.80
73955;DHT22;62306;52.516;13.290;2023-04-24T08:51:57;21.90;53.40
73955;DHT22;62306;52.516;13.290;2023-04-24T08:54:27;22.00;53.40
73955;DHT22;62306;52.516;13.290;2023-04-24T08:57:29;22.20;52.70
73955;DHT22;62306;52.516;13.290;2023-04-24T08:59:48;22.10;52.30
73955;DHT22;62306;52.516;13.290;2023-04-24T09:02:28;21.70;53.40
73955;DHT22;62306;52.516;13.290;2023-04-24T09:05:00;21.40;54.50
73955;DHT22;62306;52.516;13.290;2023-04-24T09:07:30;21.30;54.50
73955;DHT22;62306;52.516;13.290;2023-04-24T09:09:59;20.90;54.90
73955;DHT22;62306;52.516;13.290;2023-04-24T09:12:27;20.60;56.10
73955;DHT22;62306;52.516;13.290;2023-04-24T09:14:55;20.60;56.00
73955;DHT22;62306;52.516;13.290;2023-04-24T09:17:24;20.70;56.00
73955;DHT22;62306;52.516;13.290;2023-04-24T09:19:53;20.60;56.30
73955;DHT22;62306;52.516;13.290;2023-04-24T09:22:21;20.70;56.70
73955;DHT22;62306;52.516;13.290;2023-04-24T09:24:48;20.80;57.10
73955;DHT22;62306;52.516;13.290;2023-04-24T09:27:28;20.60;58.20
73955;DHT22;62306;52.516;13.290;2023-04-24T09:29:55;20.60;58.30
73955;DHT22;62306;52.516;13.290;2023-04-24T09:32:24;20.90;58.00
73955;DHT22;62306;52.516;13.290;2023-04-24T09:35:06;21.40;57.40
73955;DHT22;62306;52.516;13.290;2023-04-24T09:37:35;21.60;57.50
73955;DHT22;62306;52.516;13.290;2023-04-24T09:40:10;21.50;57.80
73955;DHT22;62306;52.516;13.290;2023-04-24T09:42:38;21.20;58.40
73955;DHT22;62306;52.516;13.290;2023-04-24T09:45:09;21.00;59.10
73955;DHT22;62306;52.516;13.290;2023-04-24T09:47:38;20.70;59.50
73955;DHT22;62306;52.516;13.290;2023-04-24T09:50:16;20.40;59.80
73955;DHT22;62306;52.516;13.290;2023-04-24T09:52:43;20.20;60.90
73955;DHT22;62306;52.516;13.290;2023-04-24T09:55:14;20.10;61.30
73955;DHT22;62306;52.516;13.290;2023-04-24T09:57:54;20.10;60.90
73955;DHT22;62306;52.516;13.290;2023-04-24T10:00:26;20.10;60.70
73955;DHT22;62306;52.516;13.290;2023-04-24T10:02:59;20.10;66.40
73955;DHT22;62306;52.516;13.290;2023-04-24T10:05:29;20.10;65.20
73955;DHT22;62306;52.516;13.290;2023-04-24T10:07:59;20.20;65.30
73955;DHT22;62306;52.516;13.290;2023-04-24T10:10:27;20.60;63.20
73955;DHT22;62306;52.516;13.290;2023-04-24T10:12:59;21.40;63.30
73955;DHT22;62306;52.516;13.290;2023-04-24T10:15:47;21.70;59.70
73955;DHT22;62306;52.516;13.290;2023-04-24T10:18:24;21.90;58.90
73955;DHT22;62306;52.516;13.290;2023-04-24T10:20:53;21.80;59.00
73955;DHT22;62306;52.516;13.290;2023-04-24T10:23:25;21.60;60.70
73955;DHT22;62306;52.516;13.290;2023-04-24T10:25:53;21.30;58.70
73955;DHT22;62306;52.516;13.290;2023-04-24T10:28:21;21.00;59.80
73955;DHT22;62306;52.516;13.290;2023-04-24T10:30:50;20.70;62.40
73955;DHT22;62306;52.516;13.290;2023-04-24T10:33:18;20.40;62.60
73955;DHT22;62306;52.516;13.290;2023-04-24T10:35:49;20.20;62.80
73955;DHT22;62306;52.516;13.290;2023-04-24T10:38:22;20.00;63.60
73955;DHT22;62306;52.516;13.290;2023-04-24T10:41:06;19.80;64.60
73955;DHT22;62306;52.516;13.290;2023-04-24T10:43:35;19.60;65.30
73955;DHT22;62306;52.516;13.290;2023-04-24T10:46:19;19.40;64.70
73955;DHT22;62306;52.516;13.290;2023-04-24T10:48:54;19.20;65.10
73955;DHT22;62306;52.516;13.290;2023-04-24T10:52:00;19.10;66.60
73955;DHT22;62306;52.516;13.290;2023-04-24T10:54:35;19.00;68.00
73955;DHT22;62306;52.516;13.290;2023-04-24T10:57:36;18.90;68.10
73955;DHT22;62306;52.516;13.290;2023-04-24T11:00:19;19.20;68.10
73955;DHT22;62306;52.516;13.290;2023-04-24T11:02:52;19.70;66.00
73955;DHT22;62306;52.516;13.290;2023-04-24T11:05:21;20.30;64.20
73955;DHT22;62306;52.516;13.290;2023-04-24T11:08:12;20.40;62.80
73955;DHT22;62306;52.516;13.290;2023-04-24T11:10:40;20.50;62.10
73955;DHT22;62306;52.516;13.290;2023-04-24T11:13:07;20.60;61.10
73955;DHT22;62306;52.516;13.290;2023-04-24T11:15:34;20.50;61.10
73955;DHT22;62306;52.516;13.290;2023-04-24T11:18:02;20.40;60.80
73955;DHT22;62306;52.516;13.290;2023-04-24T11:20:29;20.30;60.70
73955;DHT22;62306;52.516;13.290;2023-04-24T11:22:57;20.30;60.50
73955;DHT22;62306;52.516;13.290;2023-04-24T11:25:32;20.40;60.90
73955;DHT22;62306;52.516;13.290;2023-04-24T11:28:04;20.30;60.90
73955;DHT22;62306;52.516;13.290;2023-04-24T11:30:32;20.00;65.50
73955;DHT22;62306;52.516;13.290;2023-04-24T11:33:03;19.40;73.50
73955;DHT22;62306;52.516;13.290;2023-04-24T11:35:35;19.00;79.10
73955;DHT22;62306;52.516;13.290;2023-04-24T11:38:03;18.70;84.90
73955;DHT22;62306;52.516;13.290;2023-04-24T11:40:32;18.50;87.70
73955;DHT22;62306;52.516;13.290;2023-04-24T11:43:00;18.30;86.50
73955;DHT22;62306;52.516;13.290;2023-04-24T11:45:29;18.20;89.40
73955;DHT22;62306;52.516;13.290;2023-04-24T11:47:56;18.20;90.70
73955;DHT22;62306;52.516;13.290;2023-04-24T11:50:25;18.30;91.70
73955;DHT22;62306;52.516;13.290;2023-04-24T11:52:53;18.50;91.10
73955;DHT22;62306;52.516;13.290;2023-04-24T11:55:25;18.80;90.60
73955;DHT22;62306;52.516;13.290;2023-04-24T11:57:56;19.20;90.40
73955;DHT22;62306;52.516;13.290;2023-04-24T12:00:25;19.50;89.60
73955;DHT22;62306;52.516;13.290;2023-04-24T12:03:04;20.00;87.90
73955;DHT22;62306;52.516;13.290;2023-04-24T12:05:31;20.10;83.00
73955;DHT22;62306;52.516;13.290;2023-04-24T12:07:59;19.70;84.30
73955;DHT22;62306;52.516;13.290;2023-04-24T12:10:27;19.60;84.00
73955;DHT22;62306;52.516;13.290;2023-04-24T12:12:57;19.40;83.30
73955;DHT22;62306;52.516;13.290;2023-04-24T12:15:25;19.30;82.00
73955;DHT22;62306;52.516;13.290;2023-04-24T12:17:53;19.30;80.60
73955;DHT22;62306;52.516;13.290;2023-04-24T12:20:24;19.50;79.70
73955;DHT22;62306;52.516;13.290;2023-04-24T12:22:53;19.50;79.60
73955;DHT22;62306;52.516;13.290;2023-04-24T12:25:21;19.40;78.50
73955;DHT22;62306;52.516;13.290;2023-04-24T12:27:52;19.60;77.80
73955;DHT22;62306;52.516;13.290;2023-04-24T12:30:25;19.90;73.60
73955;DHT22;62306;52.516;13.290;2023-04-24T12:32:52;20.20;70.10
73955;DHT22;62306;52.516;13.290;2023-04-24T12:35:22;20.30;62.60
73955;DHT22;62306;52.516;13.290;2023-04-24T12:37:49;20.40;57.90
73955;DHT22;62306;52.516;13.290;2023-04-24T12:40:17;20.60;55.20
73955;DHT22;62306;52.516;13.290;2023-04-24T12:42:45;20.30;55.80
73955;DHT22;62306;52.516;13.290;2023-04-24T12:45:13;20.20;53.80
73955;DHT22;62306;52.516;13.290;2023-04-24T12:47:43;19.90;54.60
73955;DHT22;62306;52.516;13.290;2023-04-24T12:50:11;19.80;56.50
73955;DHT22;62306;52.516;13.290;2023-04-24T12:52:38;19.60;58.00
73955;DHT22;62306;52.516;13.290;2023-04-24T12:55:06;19.70;58.60
73955;DHT22;62306;52.516;13.290;2023-04-24T12:57:35;19.80;58.30
73955;DHT22;62306;52.516;13.290;2023-04-24T13:00:03;19.90;58.50
73955;DHT22;62306;52.516;13.290;2023-04-24T13:02:31;19.90;58.30
73955;DHT22;62306;52.516;13.290;2023-04-24T13:04:59;20.00;58.20
73955;DHT22;62306;52.516;13.290;2023-04-24T13:07:27;19.90;58.70
73955;DHT22;62306;52.516;13.290;2023-04-24T13:09:55;19.80;58.70
73955;DHT22;62306;52.516;13.290;2023-04-24T13:12:22;19.70;54.60
73955;DHT22;62306;52.516;13.290;2023-04-24T13:14:50;19.90;54.30
73955;DHT22;62306;52.516;13.290;2023-04-24T13:17:17;20.30;50.50
73955;DHT22;62306;52.516;13.290;2023-04-24T13:19:45;20.30;49.10
73955;DHT22;62306;52.516;13.290;2023-04-24T13:22:13;20.30;49.70
73955;DHT22;62306;52.516;13.290;2023-04-24T13:24:40;20.20;49.40
73955;DHT22;62306;52.516;13.290;2023-04-24T13:27:07;19.90;49.50
73955;DHT22;62306;52.516;13.290;2023-04-24T13:29:34;19.70;50.50
73955;DHT22;62306;52.516;13.290;2023-04-24T13:32:01;19.50;50.60
73955;DHT22;62306;52.516;13.290;2023-04-24T13:34:28;19.70;51.30
73955;DHT22;62306;52.516;13.290;2023-04-24T13:36:57;19.90;52.70
73955;DHT22;62306;52.516;13.290;2023-04-24T13:39:26;20.10;54.20
73955;DHT22;62306;52.516;13.290;2023-04-24T13:41:53;20.30;54.50
73955;DHT22;62306;52.516;13.290;2023-04-24T13:44:21;20.60;53.60
73955;DHT22;62306;52.516;13.290;2023-04-24T13:46:50;20.70;51.10
73955;DHT22;62306;52.516;13.290;2023-04-24T13:49:18;20.60;47.20
73955;DHT22;62306;52.516;13.290;2023-04-24T13:51:45;20.40;47.20
73955;DHT22;62306;52.516;13.290;2023-04-24T13:54:12;20.50;48.50
73955;DHT22;62306;52.516;13.290;2023-04-24T13:56:40;20.30;49.80
73955;DHT22;62306;52.516;13.290;2023-04-24T13:59:07;20.10;48.90
73955;DHT22;62306;52.516;13.290;2023-04-24T14:01:34;20.00;46.00
73955;DHT22;62306;52.516;13.290;2023-04-24T14:04:02;19.80;47.20
73955;DHT22;62306;52.516;13.290;2023-04-24T14:06:29;19.80;48.30
73955;DHT22;62306;52.516;13.290;2023-04-24T14:08:56;19.70;49.80
73955;DHT22;62306;52.516;13.290;2023-04-24T14:11:23;19.70;48.40
73955;DHT22;62306;52.516;13.290;2023-04-24T14:13:52;19.90;47.80
73955;DHT22;62306;52.516;13.290;2023-04-24T14:16:18;20.00;44.70
73955;DHT22;62306;52.516;13.290;2023-04-24T14:18:45;19.90;44.30
73955;DHT22;62306;52.516;13.290;2023-04-24T14:21:12;20.00;44.50
73955;DHT22;62306;52.516;13.290;2023-04-24T14:23:39;20.20;43.50
73955;DHT22;62306;52.516;13.290;2023-04-24T14:26:06;20.50;43.00
73955;DHT22;62306;52.516;13.290;2023-04-24T14:28:33;20.60;43.40
73955;DHT22;62306;52.516;13.290;2023-04-24T14:31:01;20.60;42.70
73955;DHT22;62306;52.516;13.290;2023-04-24T14:33:28;20.20;43.90
73955;DHT22;62306;52.516;13.290;2023-04-24T14:35:55;20.10;43.10
73955;DHT22;62306;52.516;13.290;2023-04-24T14:38:22;20.00;43.50
73955;DHT22;62306;52.516;13.290;2023-04-24T14:40:49;19.80;44.10
73955;DHT22;62306;52.516;13.290;2023-04-24T14:43:15;19.60;44.10
73955;DHT22;62306;52.516;13.290;2023-04-24T14:45:42;19.40;44.40
73955;DHT22;62306;52.516;13.290;2023-04-24T14:48:11;19.30;43.70
73955;DHT22;62306;52.516;13.290;2023-04-24T14:50:37;19.10;43.10
73955;DHT22;62306;52.516;13.290;2023-04-24T14:53:04;19.00;44.20
73955;DHT22;62306;52.516;13.290;2023-04-24T14:55:31;18.90;44.90
73955;DHT22;62306;52.516;13.290;2023-04-24T14:58:00;19.00;45.60
73955;DHT22;62306;52.516;13.290;2023-04-24T15:00:27;19.10;45.90
73955;DHT22;62306;52.516;13.290;2023-04-24T15:02:54;19.10;46.10
73955;DHT22;62306;52.516;13.290;2023-04-24T15:05:22;19.10;46.70
73955;DHT22;62306;52.516;13.290;2023-04-24T15:07:50;19.10;46.60
73955;DHT22;62306;52.516;13.290;2023-04-24T15:10:17;19.00;46.80
73955;DHT22;62306;52.516;13.290;2023-04-24T15:12:44;18.90;46.90
73955;DHT22;62306;52.516;13.290;2023-04-24T15:15:11;19.00;46.10
73955;DHT22;62306;52.516;13.290;2023-04-24T15:17:38;19.10;46.90
73955;DHT22;62306;52.516;13.290;2023-04-24T15:20:06;19.00;46.60
73955;DHT22;62306;52.516;13.290;2023-04-24T15:22:35;18.80;44.70
73955;DHT22;62306;52.516;13.290;2023-04-24T15:25:02;18.70;44.90
73955;DHT22;62306;52.516;13.290;2023-04-24T15:27:42;18.50;46.00